Time;durP1;ratioP1;P1;durP2;ratioP2;P2;SDS_P1;SDS_P2;PMS_P1;PMS_P2;Temp;Humidity;BMP_temperature;BMP_pressure;BME280_temperature;BME280_humidity;BME280_pressure;Samples;Min_cycle;Max_cycle;Signal;HPM_P1;HPM_P2
2021/03/09 00:00:01;;;;;;;23.90;16.53;;;9.10;99.90;;;;;;4971179;28;20265;-72
2021/03/09 00:02:27;;;;;;;27.57;17.40;;;9.10;99.90;;;;;;4972132;28;20255;-75
2021/03/09 00:04:54;;;;;;;25.07;17.03;;;9.10;99.90;;;;;;4972148;28;20209;-77
2021/03/09 00:07:20;;;;;;;24.27;17.23;;;9.10;99.90;;;;;;4971779;28;20217;-76
2021/03/09 00:09:47;;;;;;;22.47;16.10;;;9.10;99.90;;;;;;4971886;28;20218;-77
2021/03/09 00:12:14;;;;;;;22.17;15.33;;;9.10;99.90;;;;;;4971746;28;20232;-78
2021/03/09 00:14:40;;;;;;;28.23;17.43;;;9.10;99.90;;;;;;4971712;28;20209;-76
2021/03/09 00:17:07;;;;;;;18.33;15.13;;;9.10;99.90;;;;;;4971422;28;20362;-76
2021/03/09 00:19:33;;;;;;;26.77;17.33;;;9.00;99.90;;;;;;4971936;28;20216;-76
2021/03/09 00:22:00;;;;;;;27.40;15.63;;;9.00;99.90;;;;;;4971092;28;20205;-76
2021/03/09 00:24:26;;;;;;;22.87;16.97;;;9.10;99.90;;;;;;4972366;28;20235;-77
2021/03/09 00:26:53;;;;;;;23.03;16.50;;;9.10;99.90;;;;;;4972062;28;20260;-77
2021/03/09 00:29:20;;;;;;;21.67;16.43;;;9.00;99.90;;;;;;4971230;28;20213;-74
2021/03/09 00:31:46;;;;;;;25.87;17.17;;;9.00;99.90;;;;;;4971787;28;20220;-76
2021/03/09 00:34:13;;;;;;;25.07;17.17;;;9.10;99.90;;;;;;4970748;28;20582;-78
2021/03/09 00:36:39;;;;;;;21.43;16.53;;;9.00;99.90;;;;;;4971583;28;20205;-77
2021/03/09 00:39:06;;;;;;;21.77;16.93;;;9.00;99.90;;;;;;4971038;28;20268;-78
2021/03/09 00:41:32;;;;;;;25.03;16.93;;;8.90;99.90;;;;;;4958334;28;20216;-77
2021/03/09 00:43:59;;;;;;;20.80;16.53;;;8.90;99.90;;;;;;4971182;28;20213;-75
2021/03/09 00:46:26;;;;;;;25.67;17.27;;;8.90;99.90;;;;;;4971778;28;20201;-72
2021/03/09 00:48:53;;;;;;;21.30;15.70;;;8.90;99.90;;;;;;4971734;28;20268;-74
2021/03/09 00:51:19;;;;;;;27.90;17.70;;;8.90;99.90;;;;;;4970774;28;20213;-73
2021/03/09 00:53:45;;;;;;;21.57;16.60;;;8.90;99.90;;;;;;4973650;28;20276;-74
2021/03/09 00:56:12;;;;;;;21.47;16.20;;;8.80;99.90;;;;;;4974966;28;20609;-73
2021/03/09 00:58:38;;;;;;;21.90;17.37;;;8.70;99.90;;;;;;4975019;28;20213;-75
2021/03/09 01:01:05;;;;;;;25.70;16.90;;;8.70;99.90;;;;;;4974879;28;20213;-74
2021/03/09 01:03:32;;;;;;;23.30;16.77;;;8.60;99.90;;;;;;4974875;28;20213;-76
2021/03/09 01:05:58;;;;;;;22.27;15.80;;;8.60;99.90;;;;;;4974889;28;20213;-74
2021/03/09 01:08:25;;;;;;;23.10;16.57;;;8.50;99.90;;;;;;4974922;28;20728;-76
2021/03/09 01:10:51;;;;;;;22.77;17.20;;;8.50;99.90;;;;;;4973579;28;20205;-76
2021/03/09 01:13:18;;;;;;;22.50;17.87;;;8.40;99.90;;;;;;4974274;28;20229;-76
2021/03/09 01:15:44;;;;;;;26.13;18.97;;;8.30;99.90;;;;;;4975125;28;20213;-73
2021/03/09 01:18:10;;;;;;;24.07;18.00;;;8.30;99.90;;;;;;4974560;28;20206;-75
2021/03/09 01:20:38;;;;;;;23.40;17.00;;;8.20;99.90;;;;;;4975108;28;20214;-73
2021/03/09 01:23:04;;;;;;;25.27;17.30;;;8.10;99.90;;;;;;4974449;28;20213;-75
2021/03/09 01:25:31;;;;;;;23.97;16.80;;;8.10;99.90;;;;;;4975115;28;20205;-74
2021/03/09 01:27:57;;;;;;;20.23;17.07;;;8.10;99.90;;;;;;4974462;28;20209;-74
2021/03/09 01:30:24;;;;;;;25.93;17.53;;;8.00;99.90;;;;;;4975207;28;20206;-73
2021/03/09 01:32:51;;;;;;;28.10;19.10;;;8.00;99.90;;;;;;4974387;28;20736;-74
2021/03/09 01:35:18;;;;;;;24.97;17.47;;;7.90;99.90;;;;;;4974322;28;20698;-73
2021/03/09 01:37:45;;;;;;;23.00;17.03;;;7.90;99.90;;;;;;4974901;28;20283;-74
2021/03/09 01:40:12;;;;;;;26.03;17.50;;;7.90;99.90;;;;;;4973835;28;20213;-73
2021/03/09 01:42:39;;;;;;;22.50;18.00;;;7.90;99.90;;;;;;4974409;28;20213;-74
2021/03/09 01:45:08;;;;;;;24.33;16.03;;;7.90;99.90;;;;;;4973950;28;20217;-73
2021/03/09 01:47:40;;;;;;;24.57;17.73;;;7.90;99.90;;;;;;4974342;28;20752;-73
2021/03/09 01:50:08;;;;;;;23.10;17.60;;;7.90;99.90;;;;;;4973957;28;20237;-73
2021/03/09 01:52:34;;;;;;;24.37;17.30;;;7.80;99.90;;;;;;4974488;28;20240;-73
2021/03/09 01:55:02;;;;;;;25.57;18.53;;;7.70;99.90;;;;;;4973762;28;20264;-73
2021/03/09 01:57:29;;;;;;;20.83;15.90;;;7.60;99.90;;;;;;4974529;28;20629;-73
2021/03/09 01:59:56;;;;;;;24.60;15.67;;;7.60;99.90;;;;;;4974310;28;20588;-73
2021/03/09 02:02:23;;;;;;;28.23;20.17;;;7.70;99.90;;;;;;4974096;28;20210;-74
2021/03/09 02:04:50;;;;;;;24.67;18.57;;;7.70;99.90;;;;;;4973993;28;20214;-72
2021/03/09 02:07:16;;;;;;;23.60;16.90;;;7.70;99.90;;;;;;4973566;28;20752;-75
2021/03/09 02:09:43;;;;;;;25.53;17.97;;;7.60;99.90;;;;;;4974012;28;20213;-75
2021/03/09 02:12:21;;;;;;;23.37;17.17;;;7.60;99.90;;;;;;4973586;28;20205;-77
2021/03/09 02:14:58;;;;;;;26.67;18.83;;;7.60;99.90;;;;;;4973832;28;20713;-77
2021/03/09 02:17:30;;;;;;;21.53;15.70;;;7.60;99.90;;;;;;4974065;28;20212;-73
2021/03/09 02:20:33;;;;;;;24.10;19.47;;;7.50;99.90;;;;;;4974328;28;20585;-73
2021/03/09 02:23:30;;;;;;;22.53;17.23;;;7.60;99.90;;;;;;4973488;28;20205;-73
2021/03/09 02:26:35;;;;;;;23.10;16.17;;;7.50;99.90;;;;;;4973750;28;20209;-74
2021/03/09 02:29:23;;;;;;;29.17;17.97;;;7.40;99.90;;;;;;4925423;28;20216;-78
2021/03/09 02:31:54;;;;;;;24.27;18.93;;;7.40;99.90;;;;;;4973852;28;20210;-75
2021/03/09 02:34:26;;;;;;;28.77;19.13;;;7.40;99.90;;;;;;4973038;28;20710;-74
2021/03/09 02:36:54;;;;;;;24.67;18.67;;;7.40;99.90;;;;;;4973720;28;20205;-75
2021/03/09 02:39:22;;;;;;;25.30;18.00;;;7.40;99.90;;;;;;4972592;28;20221;-74
2021/03/09 02:41:49;;;;;;;27.30;18.67;;;7.40;99.90;;;;;;4973811;28;20272;-75
2021/03/09 02:44:19;;;;;;;24.77;17.07;;;7.40;99.90;;;;;;4973225;28;20307;-73
2021/03/09 02:46:48;;;;;;;25.43;20.00;;;7.40;99.90;;;;;;4959728;28;20213;-73
2021/03/09 02:49:17;;;;;;;30.57;20.07;;;7.30;99.90;;;;;;4973148;28;20209;-73
2021/03/09 02:51:45;;;;;;;27.77;17.47;;;7.30;99.90;;;;;;4972898;28;20559;-72
2021/03/09 02:54:15;;;;;;;22.70;17.27;;;7.20;99.90;;;;;;4972503;28;20248;-73
2021/03/09 02:56:44;;;;;;;23.00;17.37;;;7.20;99.90;;;;;;4973155;28;20209;-73
2021/03/09 02:59:14;;;;;;;23.00;17.70;;;7.10;99.90;;;;;;4972991;28;20212;-73
2021/03/09 03:01:43;;;;;;;23.77;19.00;;;7.20;99.90;;;;;;4973044;28;20216;-73
2021/03/09 03:04:12;;;;;;;24.70;18.33;;;7.10;99.90;;;;;;4972872;28;20217;-77
2021/03/09 03:06:42;;;;;;;31.40;16.90;;;7.10;99.90;;;;;;4972668;28;20206;-75
2021/03/09 03:09:09;;;;;;;23.00;17.97;;;7.10;99.90;;;;;;4972667;28;20218;-73
2021/03/09 03:11:38;;;;;;;25.77;17.37;;;7.00;99.90;;;;;;4972976;28;20245;-75
2021/03/09 03:14:07;;;;;;;21.67;16.80;;;7.00;99.90;;;;;;4972626;28;20234;-76
2021/03/09 03:16:35;;;;;;;22.23;18.50;;;7.00;99.90;;;;;;4972283;28;20205;-78
2021/03/09 03:19:02;;;;;;;25.73;18.67;;;6.90;99.90;;;;;;4971813;28;20248;-74
2021/03/09 03:21:30;;;;;;;30.73;18.90;;;6.90;99.90;;;;;;4973079;28;20205;-77
2021/03/09 03:24:03;;;;;;;23.67;16.57;;;6.90;99.90;;;;;;4972605;28;20205;-73
2021/03/09 03:26:29;;;;;;;23.47;17.17;;;6.90;99.90;;;;;;4972854;28;20209;-76
2021/03/09 03:28:57;;;;;;;19.47;15.37;;;6.80;99.90;;;;;;4972879;28;20214;-75
2021/03/09 03:31:24;;;;;;;23.33;17.47;;;6.90;99.90;;;;;;4972585;28;20681;-73
2021/03/09 03:33:50;;;;;;;28.43;18.97;;;6.90;99.90;;;;;;4972530;28;20237;-73
2021/03/09 03:36:17;;;;;;;25.77;16.83;;;6.80;99.90;;;;;;4972153;28;20551;-73
2021/03/09 03:38:44;;;;;;;23.67;16.77;;;6.80;99.90;;;;;;4972269;28;20222;-73
2021/03/09 03:41:12;;;;;;;26.83;17.93;;;6.80;99.90;;;;;;4971853;28;20213;-73
2021/03/09 03:43:39;;;;;;;26.07;18.50;;;6.80;99.90;;;;;;4972281;28;20214;-74
2021/03/09 03:46:07;;;;;;;24.23;17.43;;;6.70;99.90;;;;;;4971872;28;20235;-73
2021/03/09 03:48:36;;;;;;;22.47;17.03;;;6.70;99.90;;;;;;4972549;28;20213;-73
2021/03/09 03:51:06;;;;;;;26.47;16.97;;;6.70;99.90;;;;;;4971813;28;20576;-73
2021/03/09 03:53:38;;;;;;;22.03;16.60;;;6.70;99.90;;;;;;4971739;28;20233;-73
2021/03/09 03:56:21;;;;;;;25.70;16.60;;;6.70;99.90;;;;;;4971725;28;20217;-73
2021/03/09 03:58:51;;;;;;;21.40;17.30;;;6.60;99.90;;;;;;4971846;28;20204;-73
2021/03/09 04:01:23;;;;;;;23.07;19.03;;;6.70;99.90;;;;;;4971904;28;20220;-74
2021/03/09 04:03:53;;;;;;;21.77;16.27;;;6.70;99.90;;;;;;4971960;28;20220;-74
2021/03/09 04:06:23;;;;;;;22.93;17.53;;;6.70;99.90;;;;;;4971554;28;20224;-74
2021/03/09 04:08:50;;;;;;;27.07;17.67;;;6.80;99.90;;;;;;4971924;28;20213;-73
2021/03/09 04:11:18;;;;;;;24.57;19.70;;;6.70;99.90;;;;;;4971410;28;20655;-74
2021/03/09 04:13:45;;;;;;;27.10;19.17;;;6.70;99.90;;;;;;4971480;28;20241;-75
2021/03/09 04:16:14;;;;;;;23.80;18.87;;;6.60;99.90;;;;;;4971662;28;20212;-73
2021/03/09 04:18:41;;;;;;;28.50;18.83;;;6.60;99.90;;;;;;4971883;28;20210;-73
2021/03/09 04:21:09;;;;;;;24.87;18.67;;;6.50;99.90;;;;;;4971235;28;20264;-73
2021/03/09 04:23:37;;;;;;;24.67;17.73;;;6.50;99.90;;;;;;4971818;28;20210;-73
2021/03/09 04:26:05;;;;;;;24.10;16.87;;;6.50;99.90;;;;;;4971428;28;20202;-74
2021/03/09 04:28:33;;;;;;;21.00;16.33;;;6.40;99.90;;;;;;4971699;28;20220;-73
2021/03/09 04:31:00;;;;;;;27.20;19.17;;;6.30;99.90;;;;;;4971134;28;20720;-73
2021/03/09 04:33:27;;;;;;;24.87;17.60;;;6.20;99.90;;;;;;4971882;28;20733;-74
2021/03/09 04:35:55;;;;;;;26.23;19.20;;;6.20;99.90;;;;;;4971481;28;20593;-73
2021/03/09 04:38:22;;;;;;;24.63;18.57;;;6.20;99.90;;;;;;4971480;28;20686;-73
2021/03/09 04:40:49;;;;;;;23.13;16.60;;;6.10;99.90;;;;;;4971779;28;20256;-73
2021/03/09 04:43:16;;;;;;;28.80;19.97;;;6.10;99.90;;;;;;4971199;28;20263;-73
2021/03/09 04:45:43;;;;;;;21.60;16.43;;;6.10;99.90;;;;;;4971699;28;20310;-73
2021/03/09 04:48:10;;;;;;;32.00;18.67;;;6.10;99.90;;;;;;4971109;28;20202;-73
2021/03/09 04:50:38;;;;;;;25.47;18.17;;;6.20;99.90;;;;;;4971406;28;20213;-74
2021/03/09 04:53:05;;;;;;;25.67;17.73;;;6.30;99.90;;;;;;4970947;28;20240;-73
2021/03/09 04:55:32;;;;;;;24.83;17.87;;;6.20;99.90;;;;;;4971872;28;20300;-73
2021/03/09 04:58:01;;;;;;;27.07;19.50;;;6.20;99.90;;;;;;4970908;28;20209;-74
2021/03/09 05:00:28;;;;;;;28.77;19.63;;;6.20;99.90;;;;;;4971786;28;20670;-73
2021/03/09 05:02:55;;;;;;;26.40;19.53;;;6.20;99.90;;;;;;4971886;28;20214;-74
2021/03/09 05:05:24;;;;;;;27.20;18.63;;;6.20;99.90;;;;;;4970761;28;20597;-74
2021/03/09 05:07:53;;;;;;;25.93;18.27;;;6.20;99.90;;;;;;4971355;28;20206;-74
2021/03/09 05:10:20;;;;;;;24.60;18.87;;;6.20;99.90;;;;;;4970683;28;20202;-73
2021/03/09 05:12:49;;;;;;;26.63;18.20;;;6.10;99.90;;;;;;4971239;28;20646;-73
2021/03/09 05:15:17;;;;;;;23.53;17.70;;;6.10;99.90;;;;;;4970711;28;20682;-73
2021/03/09 05:17:43;;;;;;;24.80;18.63;;;6.10;99.90;;;;;;4971136;28;20237;-73
2021/03/09 05:20:13;;;;;;;26.67;18.20;;;6.00;99.90;;;;;;4970719;28;20298;-74
2021/03/09 05:22:40;;;;;;;23.70;18.10;;;6.00;99.90;;;;;;4971272;28;20209;-73
2021/03/09 05:25:10;;;;;;;21.70;18.23;;;6.00;99.90;;;;;;4971134;28;20217;-73
2021/03/09 05:27:37;;;;;;;25.77;18.13;;;6.00;99.90;;;;;;4970962;28;20260;-76
2021/03/09 05:30:04;;;;;;;27.23;18.23;;;5.90;99.90;;;;;;4970887;28;20249;-75
2021/03/09 05:32:31;;;;;;;28.37;19.67;;;5.90;99.90;;;;;;4970600;28;20267;-74
2021/03/09 05:34:57;;;;;;;21.60;17.90;;;6.00;99.90;;;;;;4971607;28;20209;-74
2021/03/09 05:37:25;;;;;;;24.57;17.00;;;5.90;99.90;;;;;;4971366;28;20228;-74
2021/03/09 05:39:51;;;;;;;24.40;16.90;;;5.80;99.90;;;;;;4973299;28;20216;-74
2021/03/09 05:42:18;;;;;;;23.43;15.27;;;5.90;99.90;;;;;;4974022;28;20213;-75
2021/03/09 05:44:44;;;;;;;22.97;16.73;;;5.90;99.90;;;;;;4974417;28;20210;-74
2021/03/09 05:47:11;;;;;;;21.43;15.27;;;5.90;99.90;;;;;;4973954;28;20219;-74
2021/03/09 05:49:37;;;;;;;22.07;16.40;;;5.90;99.90;;;;;;4974483;28;20209;-74
2021/03/09 05:52:05;;;;;;;20.87;15.33;;;5.80;99.90;;;;;;4974149;28;20217;-76
2021/03/09 05:54:32;;;;;;;21.63;15.63;;;5.80;99.90;;;;;;4974282;28;20609;-76
2021/03/09 05:56:58;;;;;;;23.50;16.70;;;5.80;99.90;;;;;;4973776;28;20256;-74
2021/03/09 05:59:25;;;;;;;22.37;16.93;;;5.80;99.90;;;;;;4974693;28;20213;-74
2021/03/09 06:01:51;;;;;;;24.87;16.00;;;5.70;99.90;;;;;;4973695;28;20271;-74
2021/03/09 06:04:18;;;;;;;25.23;16.00;;;5.70;99.90;;;;;;4973799;28;20698;-73
2021/03/09 06:06:45;;;;;;;19.23;13.93;;;5.70;99.90;;;;;;4973882;28;20684;-74
2021/03/09 06:09:37;;;;;;;23.53;16.27;;;5.70;99.90;;;;;;4973784;28;20280;-73
2021/03/09 06:12:08;;;;;;;23.17;16.50;;;5.60;99.90;;;;;;4962892;28;20223;-74
2021/03/09 06:14:38;;;;;;;21.50;15.30;;;5.60;99.90;;;;;;4974084;28;20240;-73
2021/03/09 06:17:04;;;;;;;23.10;16.63;;;5.70;99.90;;;;;;4973219;28;20263;-73
2021/03/09 06:19:45;;;;;;;26.20;17.23;;;5.70;99.90;;;;;;4973672;28;20220;-75
2021/03/09 06:22:13;;;;;;;22.63;15.93;;;5.60;99.90;;;;;;4973722;28;20201;-74
2021/03/09 06:24:40;;;;;;;21.07;16.57;;;5.50;99.90;;;;;;4973403;28;20210;-75
2021/03/09 06:27:28;;;;;;;23.17;16.80;;;5.40;99.90;;;;;;4973624;28;20209;-73
2021/03/09 06:29:55;;;;;;;22.07;16.67;;;5.40;99.90;;;;;;4974065;28;20220;-73
2021/03/09 06:32:22;;;;;;;19.20;15.90;;;5.40;99.90;;;;;;4973112;28;20206;-74
2021/03/09 06:34:49;;;;;;;22.27;16.13;;;5.40;99.90;;;;;;4973677;28;20241;-75
2021/03/09 06:37:18;;;;;;;24.33;17.17;;;5.40;99.90;;;;;;4971409;28;20210;-74
2021/03/09 06:40:06;;;;;;;25.73;17.20;;;5.50;99.90;;;;;;4972620;28;20674;-73
2021/03/09 06:42:36;;;;;;;26.60;18.93;;;5.40;99.90;;;;;;4973717;28;20378;-73
2021/03/09 06:45:06;;;;;;;24.57;17.33;;;5.40;99.90;;;;;;4972330;28;20598;-73
2021/03/09 06:47:39;;;;;;;24.27;16.00;;;5.40;99.90;;;;;;4973351;28;20210;-74
2021/03/09 06:50:08;;;;;;;24.20;17.33;;;5.50;99.90;;;;;;4972323;28;20241;-73
2021/03/09 06:52:35;;;;;;;25.27;17.73;;;5.40;99.90;;;;;;4972751;28;20696;-72
2021/03/09 06:55:03;;;;;;;26.43;17.90;;;5.50;99.90;;;;;;4972618;28;20236;-72
2021/03/09 06:57:29;;;;;;;26.70;17.93;;;5.50;99.90;;;;;;4972968;28;20598;-73
2021/03/09 06:59:56;;;;;;;27.27;18.60;;;5.60;99.90;;;;;;4972855;28;20248;-73
2021/03/09 07:02:24;;;;;;;23.10;17.77;;;5.80;99.90;;;;;;4973224;28;20213;-73
2021/03/09 07:04:51;;;;;;;23.93;17.37;;;5.80;99.90;;;;;;4973137;28;20210;-75
2021/03/09 07:07:23;;;;;;;22.60;17.30;;;5.70;99.90;;;;;;4972988;28;20209;-72
2021/03/09 07:09:54;;;;;;;20.17;17.03;;;5.80;99.90;;;;;;4973191;28;20689;-73
2021/03/09 07:12:22;;;;;;;24.83;20.27;;;5.90;99.90;;;;;;4972467;28;20693;-73
2021/03/09 07:14:50;;;;;;;30.17;16.97;;;6.00;99.90;;;;;;4972470;28;20249;-73
2021/03/09 07:17:21;;;;;;;24.27;16.60;;;5.90;99.90;;;;;;4972130;28;20245;-73
2021/03/09 07:19:48;;;;;;;28.07;17.80;;;6.00;99.90;;;;;;4972905;28;20213;-74
2021/03/09 07:22:17;;;;;;;24.97;17.63;;;6.10;99.90;;;;;;4972502;28;20205;-78
2021/03/09 07:24:49;;;;;;;26.93;19.07;;;6.30;99.90;;;;;;4972824;28;20214;-73
2021/03/09 07:27:19;;;;;;;23.70;17.10;;;6.30;99.90;;;;;;4972248;28;20205;-74
2021/03/09 07:29:51;;;;;;;20.27;16.30;;;6.50;99.90;;;;;;4972482;28;20205;-72
2021/03/09 07:32:22;;;;;;;22.87;17.77;;;6.60;99.90;;;;;;4972393;28;20209;-73
2021/03/09 07:34:49;;;;;;;20.97;16.33;;;6.70;99.90;;;;;;4972234;28;20322;-73
2021/03/09 07:37:17;;;;;;;27.07;19.23;;;6.80;99.90;;;;;;4972152;28;20209;-74
2021/03/09 07:39:44;;;;;;;24.97;17.67;;;7.00;99.90;;;;;;4972147;28;20241;-72
2021/03/09 07:42:11;;;;;;;23.43;17.43;;;7.10;99.90;;;;;;4972055;28;20228;-73
2021/03/09 07:44:40;;;;;;;23.47;18.60;;;7.20;99.90;;;;;;4974000;28;20216;-73
2021/03/09 07:47:10;;;;;;;25.73;17.00;;;7.30;99.90;;;;;;4970995;28;20209;-72
2021/03/09 07:49:38;;;;;;;22.93;18.47;;;7.40;99.90;;;;;;4971867;28;20205;-71
2021/03/09 07:52:16;;;;;;;18.43;15.87;;;7.40;99.90;;;;;;4971888;28;20210;-72
2021/03/09 07:55:15;;;;;;;25.13;18.17;;;7.70;99.90;;;;;;4972000;28;20267;-72
2021/03/09 07:57:41;;;;;;;20.93;15.63;;;8.40;99.90;;;;;;4972367;28;20205;-72
2021/03/09 08:00:11;;;;;;;20.23;17.40;;;9.10;99.90;;;;;;4967195;28;20292;-72
2021/03/09 08:02:53;;;;;;;22.73;17.43;;;10.20;99.90;;;;;;4970841;28;20638;-72
2021/03/09 08:05:21;;;;;;;23.17;17.90;;;10.70;99.90;;;;;;4970565;28;20205;-72
2021/03/09 08:07:53;;;;;;;23.27;16.70;;;10.80;99.90;;;;;;4967430;28;20218;-72
2021/03/09 08:10:46;;;;;;;23.63;17.23;;;10.90;99.90;;;;;;4969877;28;20210;-72
2021/03/09 08:13:27;;;;;;;22.50;17.43;;;10.90;99.90;;;;;;4963267;28;20229;-72
2021/03/09 08:16:30;;;;;;;21.53;17.07;;;11.00;99.90;;;;;;4967725;28;20220;-72
2021/03/09 08:19:06;;;;;;;26.13;19.33;;;11.30;99.90;;;;;;4971499;28;20212;-72
2021/03/09 08:22:03;;;;;;;22.37;18.17;;;10.80;99.90;;;;;;4960262;28;20229;-72
2021/03/09 08:24:56;;;;;;;23.13;18.17;;;9.80;99.90;;;;;;4971209;28;20745;-72
2021/03/09 08:27:39;;;;;;;25.27;18.97;;;10.00;99.90;;;;;;4936683;28;20244;-75
2021/03/09 08:30:39;;;;;;;22.00;18.07;;;9.80;99.90;;;;;;4971046;28;20681;-72
2021/03/09 08:33:36;;;;;;;22.30;17.47;;;9.60;99.90;;;;;;4962803;28;20226;-72
2021/03/09 08:36:32;;;;;;;27.07;18.67;;;10.40;99.90;;;;;;4970897;28;20217;-71
2021/03/09 08:39:16;;;;;;;26.37;19.00;;;10.70;99.90;;;;;;4971499;28;20312;-71
2021/03/09 08:42:02;;;;;;;21.43;18.13;;;10.50;99.90;;;;;;4959707;28;20566;-71
2021/03/09 08:44:29;;;;;;;22.53;18.40;;;10.40;99.90;;;;;;4970990;28;20210;-72
2021/03/09 08:46:57;;;;;;;27.23;18.57;;;10.80;99.90;;;;;;4971750;28;20599;-71
2021/03/09 08:49:46;;;;;;;23.10;18.67;;;13.10;99.90;;;;;;4967748;28;20209;-73
2021/03/09 08:52:40;;;;;;;19.80;17.70;;;13.50;99.90;;;;;;4963791;28;20201;-72
2021/03/09 08:55:08;;;;;;;21.97;17.93;;;12.80;99.90;;;;;;4969907;28;20210;-75
2021/03/09 08:57:34;;;;;;;21.40;17.87;;;11.90;99.90;;;;;;4970742;28;20242;-76
2021/03/09 09:00:05;;;;;;;22.43;18.77;;;11.80;99.90;;;;;;4970971;28;20205;-76
2021/03/09 09:02:32;;;;;;;21.70;17.53;;;11.70;99.90;;;;;;4970322;28;20225;-76
2021/03/09 09:05:02;;;;;;;20.13;17.97;;;11.90;99.90;;;;;;4967665;28;20308;-73
2021/03/09 09:07:31;;;;;;;23.58;18.10;;;12.60;99.90;;;;;;4959583;28;20210;-72
2021/03/09 09:09:59;;;;;;;20.10;17.52;;;12.10;99.90;;;;;;4970409;28;20205;-75
2021/03/09 09:12:36;;;;;;;24.88;19.67;;;13.20;99.90;;;;;;4970780;28;20208;-75
2021/03/09 09:15:20;;;;;;;26.52;20.23;;;13.40;99.90;;;;;;4971546;28;20291;-71
2021/03/09 09:17:50;;;;;;;20.25;18.13;;;12.70;99.90;;;;;;4973196;28;20673;-72
2021/03/09 09:20:21;;;;;;;23.17;18.48;;;12.70;99.90;;;;;;4972879;28;20598;-72
2021/03/09 09:22:51;;;;;;;20.48;17.83;;;13.80;99.90;;;;;;4971443;28;20212;-72
2021/03/09 09:25:17;;;;;;;23.13;16.15;;;15.60;99.90;;;;;;4973897;28;20214;-77
2021/03/09 09:27:49;;;;;;;22.45;18.70;;;16.60;99.90;;;;;;4974395;28;20213;-74
2021/03/09 09:30:19;;;;;;;22.15;18.23;;;14.70;99.90;;;;;;4974140;28;20578;-77
2021/03/09 09:32:50;;;;;;;24.52;19.13;;;13.30;99.90;;;;;;4973833;28;20213;-78
2021/03/09 09:35:18;;;;;;;20.92;17.83;;;12.20;99.90;;;;;;4972489;28;20213;-72
2021/03/09 09:37:50;;;;;;;23.20;18.40;;;12.10;99.90;;;;;;4974024;28;20272;-71
2021/03/09 09:40:19;;;;;;;24.98;18.95;;;12.40;99.90;;;;;;4973606;28;20213;-74
2021/03/09 09:42:53;;;;;;;21.25;17.77;;;14.50;99.90;;;;;;4974166;28;20209;-75
2021/03/09 09:45:20;;;;;;;20.85;17.58;;;16.60;99.90;;;;;;4970939;28;20281;-74
2021/03/09 09:47:47;;;;;;;21.83;17.70;;;17.60;99.90;;;;;;4973169;28;20673;-71
2021/03/09 09:50:14;;;;;;;20.05;17.90;;;15.50;99.90;;;;;;4968353;28;20214;-71
2021/03/09 09:52:50;;;;;;;22.13;17.90;;;13.90;99.90;;;;;;4970550;28;20233;-72
2021/03/09 09:55:21;;;;;;;21.13;18.77;;;15.40;99.90;;;;;;4973346;28;20260;-72
2021/03/09 09:57:51;;;;;;;22.25;18.23;;;15.70;99.90;;;;;;4973615;28;20206;-76
2021/03/09 10:00:21;;;;;;;21.05;18.63;;;15.50;99.90;;;;;;4973523;28;20619;-72
2021/03/09 10:03:09;;;;;;;20.75;18.50;;;15.60;99.90;;;;;;4970264;28;20210;-72
2021/03/09 10:05:37;;;;;;;20.10;18.02;;;17.20;99.90;;;;;;4972323;28;20220;-72
2021/03/09 10:08:04;;;;;;;21.73;19.35;;;17.80;99.90;;;;;;4972975;28;20684;-71
2021/03/09 10:10:32;;;;;;;22.38;18.15;;;17.80;99.90;;;;;;4970864;28;20586;-74
2021/03/09 10:12:58;;;;;;;22.23;19.60;;;18.40;99.90;;;;;;4972976;28;20599;-72
2021/03/09 10:15:44;;;;;;;19.65;17.65;;;19.00;99.90;;;;;;4973453;28;20681;-72
2021/03/09 10:18:15;;;;;;;23.73;18.85;;;17.50;99.90;;;;;;4965861;28;20202;-73
2021/03/09 10:20:42;;;;;;;20.88;18.52;;;17.50;99.90;;;;;;4973266;28;20213;-76
2021/03/09 10:23:09;;;;;;;21.13;18.88;;;17.00;99.90;;;;;;4973029;28;20566;-74
2021/03/09 10:25:40;;;;;;;19.95;17.17;;;17.10;99.90;;;;;;4972610;28;20213;-72
2021/03/09 10:28:07;;;;;;;22.77;19.75;;;18.70;99.90;;;;;;4962689;28;20209;-75
2021/03/09 10:30:38;;;;;;;20.75;18.40;;;18.30;99.90;;;;;;4972869;28;20283;-72
2021/03/09 10:33:09;;;;;;;21.40;19.17;;;18.20;99.90;;;;;;4973034;28;20244;-73
2021/03/09 10:35:57;;;;;;;21.13;18.92;;;17.60;99.90;;;;;;4973613;28;20299;-73
2021/03/09 10:38:23;;;;;;;19.50;17.45;;;18.20;99.90;;;;;;4973001;28;20213;-72
2021/03/09 10:40:50;;;;;;;22.38;20.00;;;14.30;99.90;;;;;;4973436;28;20213;-73
2021/03/09 10:43:17;;;;;;;23.40;19.48;;;12.80;99.90;;;;;;4973063;28;20267;-74
2021/03/09 10:45:43;;;;;;;25.65;20.75;;;12.10;99.90;;;;;;4973270;28;20241;-73
2021/03/09 10:48:10;;;;;;;21.83;18.30;;;11.60;99.90;;;;;;4972433;28;20627;-74
2021/03/09 10:50:40;;;;;;;22.63;20.13;;;12.00;99.90;;;;;;4972746;28;20241;-74
2021/03/09 10:53:07;;;;;;;20.98;18.65;;;11.50;99.90;;;;;;4972414;28;20205;-73
2021/03/09 10:55:33;;;;;;;21.65;17.52;;;11.70;99.90;;;;;;4971833;28;20629;-74
2021/03/09 10:58:01;;;;;;;21.65;18.17;;;12.10;99.90;;;;;;4972560;28;20608;-73
2021/03/09 11:00:27;;;;;;;22.27;18.75;;;12.00;99.90;;;;;;4972441;28;20212;-74
2021/03/09 11:02:54;;;;;;;21.42;18.48;;;11.90;99.90;;;;;;4972884;28;20221;-72
2021/03/09 11:05:20;;;;;;;21.27;17.50;;;11.80;99.90;;;;;;4971503;28;20205;-73
2021/03/09 11:07:47;;;;;;;21.95;18.92;;;11.80;99.90;;;;;;4972578;28;20267;-74
2021/03/09 11:10:14;;;;;;;24.60;19.02;;;11.30;99.90;;;;;;4972873;28;20209;-72
2021/03/09 11:12:41;;;;;;;25.27;19.90;;;11.50;99.90;;;;;;4972477;28;20205;-75
2021/03/09 11:15:10;;;;;;;23.58;19.77;;;11.60;99.90;;;;;;4972422;28;20241;-76
2021/03/09 11:17:36;;;;;;;23.80;18.37;;;11.70;99.90;;;;;;4972395;28;20568;-73
2021/03/09 11:20:05;;;;;;;22.13;18.47;;;11.70;99.90;;;;;;4972360;28;20213;-77
2021/03/09 11:22:32;;;;;;;27.60;18.77;;;11.80;99.90;;;;;;4970598;28;20210;-78
2021/03/09 11:24:58;;;;;;;24.90;17.83;;;11.50;99.90;;;;;;4972813;28;20261;-72
2021/03/09 11:27:25;;;;;;;24.27;17.87;;;11.50;99.90;;;;;;4972305;28;20268;-76
2021/03/09 11:29:51;;;;;;;23.97;17.93;;;11.70;99.90;;;;;;4972889;28;20209;-79
2021/03/09 11:32:18;;;;;;;23.50;17.50;;;11.40;99.90;;;;;;4972290;28;20217;-78
2021/03/09 11:34:45;;;;;;;27.93;18.07;;;11.70;99.90;;;;;;4971395;28;20619;-74
2021/03/09 11:37:11;;;;;;;23.87;18.17;;;11.60;99.90;;;;;;4970734;28;20678;-73
2021/03/09 11:39:38;;;;;;;22.43;18.70;;;11.50;99.90;;;;;;4971907;28;20201;-76
2021/03/09 11:42:05;;;;;;;21.27;16.97;;;11.40;99.90;;;;;;4968964;28;20266;-72
2021/03/09 11:44:31;;;;;;;20.80;18.03;;;11.50;99.90;;;;;;4967072;28;20209;-73
2021/03/09 11:46:58;;;;;;;24.43;19.00;;;11.20;99.90;;;;;;4970237;28;20213;-72
2021/03/09 11:49:25;;;;;;;22.47;18.50;;;11.60;99.90;;;;;;4967411;28;20748;-72
2021/03/09 11:51:52;;;;;;;22.20;17.17;;;11.70;99.90;;;;;;4971114;28;20206;-77
2021/03/09 11:54:18;;;;;;;23.27;17.13;;;11.90;99.90;;;;;;4971539;28;20583;-78
2021/03/09 11:56:44;;;;;;;25.53;19.63;;;12.20;99.90;;;;;;4970127;28;20202;-78
2021/03/09 11:59:11;;;;;;;20.00;17.90;;;12.10;99.90;;;;;;4962358;28;20216;-75
2021/03/09 12:01:37;;;;;;;22.17;18.43;;;12.00;99.90;;;;;;4967657;28;20216;-74
2021/03/09 12:04:04;;;;;;;24.70;18.93;;;11.80;99.90;;;;;;4971161;28;20216;-73
2021/03/09 12:06:32;;;;;;;23.70;17.97;;;11.60;99.90;;;;;;4969639;28;20217;-73
2021/03/09 12:08:58;;;;;;;20.77;16.00;;;12.00;99.90;;;;;;4971536;28;20240;-75
2021/03/09 12:11:25;;;;;;;20.43;16.43;;;12.10;99.90;;;;;;4972271;28;20217;-76
2021/03/09 12:13:51;;;;;;;20.30;16.10;;;12.10;99.90;;;;;;4971714;28;20225;-73
2021/03/09 12:16:18;;;;;;;23.00;19.00;;;12.00;99.90;;;;;;4971498;28;20210;-75
2021/03/09 12:18:44;;;;;;;23.23;16.50;;;12.00;99.90;;;;;;4971171;28;20217;-73
2021/03/09 12:21:11;;;;;;;22.83;17.90;;;12.30;99.90;;;;;;4971071;28;20216;-73
2021/03/09 12:23:38;;;;;;;22.53;17.23;;;12.50;99.90;;;;;;4971675;28;20222;-76
2021/03/09 12:26:04;;;;;;;22.03;18.20;;;12.40;99.90;;;;;;4970899;28;20213;-73
2021/03/09 12:28:31;;;;;;;23.87;17.93;;;12.00;99.90;;;;;;4971972;28;20214;-73
2021/03/09 12:30:57;;;;;;;21.20;18.40;;;12.10;99.90;;;;;;4971562;28;20214;-73
2021/03/09 12:33:24;;;;;;;18.07;15.83;;;12.00;99.90;;;;;;4968246;28;20233;-73
2021/03/09 12:35:50;;;;;;;23.47;16.17;;;12.20;99.90;;;;;;4955059;28;20210;-72
2021/03/09 12:38:17;;;;;;;21.87;16.53;;;12.50;99.90;;;;;;4957918;28;20217;-72
2021/03/09 12:40:44;;;;;;;21.17;17.87;;;12.60;99.90;;;;;;4971480;28;20633;-73
2021/03/09 12:43:11;;;;;;;23.92;17.65;;;12.50;99.90;;;;;;4970539;28;20669;-73
2021/03/09 12:45:37;;;;;;;20.98;17.77;;;12.50;99.90;;;;;;4969125;28;20201;-72